sensor_id;sensor_type;location;lat;lon;timestamp;P1;durP1;ratioP1;P2;durP2;ratioP2
12151;SDS011;6139;51.274;7.128;2024-01-30T00:01:00;8.75;;;6.53;;
12151;SDS011;6139;51.274;7.128;2024-01-30T00:02:02;7.97;;;6.78;;
12151;SDS011;6139;51.274;7.128;2024-01-30T00:03:03;10.57;;;7.05;;
12151;SDS011;6139;51.274;7.128;2024-01-30T00:04:06;13.30;;;7.75;;
12151;SDS011;6139;51.274;7.128;2024-01-30T00:05:07;7.93;;;7.13;;
12151;SDS011;6139;51.274;7.128;2024-01-30T00:06:09;9.73;;;7.60;;
12151;SDS011;6139;51.274;7.128;2024-01-30T00:07:13;9.65;;;6.82;;
12151;SDS011;6139;51.274;7.128;2024-01-30T00:08:15;7.85;;;6.75;;
12151;SDS011;6139;51.274;7.128;2024-01-30T00:09:16;10.18;;;6.97;;
12151;SDS011;6139;51.274;7.128;2024-01-30T00:10:17;10.30;;;6.97;;
12151;SDS011;6139;51.274;7.128;2024-01-30T00:11:18;8.55;;;6.78;;
12151;SDS011;6139;51.274;7.128;2024-01-30T00:12:21;8.15;;;6.88;;
12151;SDS011;6139;51.274;7.128;2024-01-30T00:13:22;8.25;;;6.80;;
12151;SDS011;6139;51.274;7.128;2024-01-30T00:14:24;8.75;;;7.00;;
12151;SDS011;6139;51.274;7.128;2024-01-30T00:15:25;9.15;;;7.05;;
12151;SDS011;6139;51.274;7.128;2024-01-30T00:16:26;9.60;;;6.95;;
12151;SDS011;6139;51.274;7.128;2024-01-30T00:17:29;9.15;;;7.43;;
12151;SDS011;6139;51.274;7.128;2024-01-30T00:18:30;8.02;;;6.85;;
12151;SDS011;6139;51.274;7.128;2024-01-30T00:19:32;7.85;;;6.45;;
12151;SDS011;6139;51.274;7.128;2024-01-30T00:20:33;8.05;;;6.75;;
12151;SDS011;6139;51.274;7.128;2024-01-30T00:21:35;9.50;;;7.32;;
12151;SDS011;6139;51.274;7.128;2024-01-30T00:22:37;11.65;;;7.55;;
12151;SDS011;6139;51.274;7.128;2024-01-30T00:23:39;10.70;;;7.28;;
12151;SDS011;6139;51.274;7.128;2024-01-30T00:24:40;8.07;;;6.97;;
12151;SDS011;6139;51.274;7.128;2024-01-30T00:25:42;9.48;;;6.90;;
12151;SDS011;6139;51.274;7.128;2024-01-30T00:26:43;9.60;;;7.10;;
12151;SDS011;6139;51.274;7.128;2024-01-30T00:27:45;8.43;;;7.25;;
12151;SDS011;6139;51.274;7.128;2024-01-30T00:28:46;7.75;;;6.57;;
12151;SDS011;6139;51.274;7.128;2024-01-30T00:29:48;8.50;;;7.10;;
12151;SDS011;6139;51.274;7.128;2024-01-30T00:30:49;8.77;;;6.95;;
12151;SDS011;6139;51.274;7.128;2024-01-30T00:31:51;8.02;;;7.20;;
12151;SDS011;6139;51.274;7.128;2024-01-30T00:32:53;8.00;;;7.20;;
12151;SDS011;6139;51.274;7.128;2024-01-30T00:33:55;7.95;;;7.15;;
12151;SDS011;6139;51.274;7.128;2024-01-30T00:34:56;8.43;;;7.00;;
12151;SDS011;6139;51.274;7.128;2024-01-30T00:35:58;9.35;;;7.10;;
12151;SDS011;6139;51.274;7.128;2024-01-30T00:36:59;10.65;;;6.93;;
12151;SDS011;6139;51.274;7.128;2024-01-30T00:38:02;8.95;;;6.93;;
12151;SDS011;6139;51.274;7.128;2024-01-30T00:39:04;8.25;;;6.65;;
12151;SDS011;6139;51.274;7.128;2024-01-30T00:40:09;8.43;;;7.07;;
12151;SDS011;6139;51.274;7.128;2024-01-30T00:41:17;8.85;;;7.13;;
12151;SDS011;6139;51.274;7.128;2024-01-30T00:42:19;8.00;;;7.07;;
12151;SDS011;6139;51.274;7.128;2024-01-30T00:43:20;8.57;;;6.95;;
12151;SDS011;6139;51.274;7.128;2024-01-30T00:44:22;9.60;;;6.88;;
12151;SDS011;6139;51.274;7.128;2024-01-30T00:45:23;9.93;;;7.00;;
12151;SDS011;6139;51.274;7.128;2024-01-30T00:46:25;8.85;;;7.25;;
12151;SDS011;6139;51.274;7.128;2024-01-30T00:47:26;7.63;;;6.50;;
12151;SDS011;6139;51.274;7.128;2024-01-30T00:48:29;9.63;;;6.93;;
12151;SDS011;6139;51.274;7.128;2024-01-30T00:49:30;9.52;;;7.20;;
12151;SDS011;6139;51.274;7.128;2024-01-30T00:50:32;9.70;;;6.32;;
12151;SDS011;6139;51.274;7.128;2024-01-30T00:51:33;10.07;;;7.28;;
12151;SDS011;6139;51.274;7.128;2024-01-30T00:52:35;9.60;;;8.02;;
12151;SDS011;6139;51.274;7.128;2024-01-30T00:53:37;12.35;;;7.07;;
12151;SDS011;6139;51.274;7.128;2024-01-30T00:54:39;9.07;;;7.30;;
12151;SDS011;6139;51.274;7.128;2024-01-30T00:55:40;9.48;;;6.68;;
12151;SDS011;6139;51.274;7.128;2024-01-30T00:56:42;8.70;;;7.20;;
12151;SDS011;6139;51.274;7.128;2024-01-30T00:57:43;8.48;;;7.07;;
12151;SDS011;6139;51.274;7.128;2024-01-30T00:58:45;9.88;;;7.15;;
12151;SDS011;6139;51.274;7.128;2024-01-30T00:59:46;8.43;;;6.55;;
12151;SDS011;6139;51.274;7.128;2024-01-30T01:00:48;7.63;;;6.80;;
12151;SDS011;6139;51.274;7.128;2024-01-30T01:01:49;10.23;;;6.90;;
12151;SDS011;6139;51.274;7.128;2024-01-30T01:02:51;8.18;;;6.45;;
12151;SDS011;6139;51.274;7.128;2024-01-30T01:03:52;10.93;;;7.55;;
12151;SDS011;6139;51.274;7.128;2024-01-30T01:04:54;10.70;;;7.50;;
12151;SDS011;6139;51.274;7.128;2024-01-30T01:05:55;8.77;;;7.05;;
12151;SDS011;6139;51.274;7.128;2024-01-30T01:06:57;8.27;;;6.80;;
12151;SDS011;6139;51.274;7.128;2024-01-30T01:07:58;8.23;;;6.88;;
12151;SDS011;6139;51.274;7.128;2024-01-30T01:09:01;9.20;;;7.28;;
12151;SDS011;6139;51.274;7.128;2024-01-30T01:10:04;13.68;;;7.50;;
12151;SDS011;6139;51.274;7.128;2024-01-30T01:11:05;7.95;;;6.80;;
12151;SDS011;6139;51.274;7.128;2024-01-30T01:12:07;10.52;;;7.72;;
12151;SDS011;6139;51.274;7.128;2024-01-30T01:13:08;9.57;;;7.10;;
12151;SDS011;6139;51.274;7.128;2024-01-30T01:14:10;8.02;;;6.70;;
12151;SDS011;6139;51.274;7.128;2024-01-30T01:15:11;7.32;;;6.63;;
12151;SDS011;6139;51.274;7.128;2024-01-30T01:16:13;7.65;;;6.43;;
12151;SDS011;6139;51.274;7.128;2024-01-30T01:17:14;8.20;;;6.82;;
12151;SDS011;6139;51.274;7.128;2024-01-30T01:18:16;8.73;;;6.70;;
12151;SDS011;6139;51.274;7.128;2024-01-30T01:19:17;7.50;;;6.65;;
12151;SDS011;6139;51.274;7.128;2024-01-30T01:20:19;9.75;;;7.00;;
12151;SDS011;6139;51.274;7.128;2024-01-30T01:21:21;8.27;;;6.72;;
12151;SDS011;6139;51.274;7.128;2024-01-30T01:22:23;9.38;;;6.85;;
12151;SDS011;6139;51.274;7.128;2024-01-30T01:23:24;8.52;;;6.85;;
12151;SDS011;6139;51.274;7.128;2024-01-30T01:24:27;8.52;;;6.90;;
12151;SDS011;6139;51.274;7.128;2024-01-30T01:25:28;9.88;;;6.50;;
12151;SDS011;6139;51.274;7.128;2024-01-30T01:26:30;9.35;;;7.15;;
12151;SDS011;6139;51.274;7.128;2024-01-30T01:27:31;7.93;;;6.45;;
12151;SDS011;6139;51.274;7.128;2024-01-30T01:28:34;9.73;;;6.88;;
12151;SDS011;6139;51.274;7.128;2024-01-30T01:29:35;9.02;;;6.65;;
12151;SDS011;6139;51.274;7.128;2024-01-30T01:30:37;8.50;;;7.38;;
12151;SDS011;6139;51.274;7.128;2024-01-30T01:31:39;8.52;;;7.10;;
12151;SDS011;6139;51.274;7.128;2024-01-30T01:32:43;10.70;;;7.47;;
12151;SDS011;6139;51.274;7.128;2024-01-30T01:33:50;8.88;;;6.88;;
12151;SDS011;6139;51.274;7.128;2024-01-30T01:34:52;8.63;;;6.93;;
12151;SDS011;6139;51.274;7.128;2024-01-30T01:35:53;7.65;;;6.47;;
12151;SDS011;6139;51.274;7.128;2024-01-30T01:36:56;8.35;;;6.90;;
12151;SDS011;6139;51.274;7.128;2024-01-30T01:37:57;9.60;;;6.90;;
12151;SDS011;6139;51.274;7.128;2024-01-30T01:39:00;9.15;;;7.18;;
12151;SDS011;6139;51.274;7.128;2024-01-30T01:40:03;11.00;;;6.95;;
12151;SDS011;6139;51.274;7.128;2024-01-30T01:41:06;8.70;;;6.40;;
12151;SDS011;6139;51.274;7.128;2024-01-30T01:42:07;16.10;;;6.95;;
12151;SDS011;6139;51.274;7.128;2024-01-30T01:43:09;7.10;;;6.40;;
12151;SDS011;6139;51.274;7.128;2024-01-30T01:44:10;7.63;;;6.88;;
12151;SDS011;6139;51.274;7.128;2024-01-30T01:45:12;8.00;;;7.20;;
12151;SDS011;6139;51.274;7.128;2024-01-30T01:46:13;8.18;;;6.90;;
12151;SDS011;6139;51.274;7.128;2024-01-30T01:47:15;9.05;;;7.10;;
12151;SDS011;6139;51.274;7.128;2024-01-30T01:48:16;8.13;;;6.65;;
12151;SDS011;6139;51.274;7.128;2024-01-30T01:49:19;10.30;;;7.30;;
12151;SDS011;6139;51.274;7.128;2024-01-30T01:50:21;8.50;;;6.68;;
12151;SDS011;6139;51.274;7.128;2024-01-30T01:51:24;7.15;;;6.45;;
12151;SDS011;6139;51.274;7.128;2024-01-30T01:52:28;8.70;;;6.93;;
12151;SDS011;6139;51.274;7.128;2024-01-30T01:53:30;8.48;;;6.57;;
12151;SDS011;6139;51.274;7.128;2024-01-30T01:54:31;8.95;;;7.00;;
12151;SDS011;6139;51.274;7.128;2024-01-30T01:55:35;9.15;;;6.78;;
12151;SDS011;6139;51.274;7.128;2024-01-30T01:56:37;9.27;;;7.32;;
12151;SDS011;6139;51.274;7.128;2024-01-30T01:57:40;9.57;;;6.28;;
12151;SDS011;6139;51.274;7.128;2024-01-30T01:58:41;9.43;;;7.18;;
12151;SDS011;6139;51.274;7.128;2024-01-30T01:59:45;9.40;;;6.55;;
12151;SDS011;6139;51.274;7.128;2024-01-30T02:00:46;9.68;;;6.75;;
12151;SDS011;6139;51.274;7.128;2024-01-30T02:01:48;8.80;;;6.70;;
12151;SDS011;6139;51.274;7.128;2024-01-30T02:02:50;8.45;;;6.40;;
12151;SDS011;6139;51.274;7.128;2024-01-30T02:03:55;8.20;;;7.03;;
12151;SDS011;6139;51.274;7.128;2024-01-30T02:04:56;8.40;;;6.97;;
12151;SDS011;6139;51.274;7.128;2024-01-30T02:05:58;7.50;;;5.95;;
12151;SDS011;6139;51.274;7.128;2024-01-30T02:07:00;7.82;;;6.68;;
12151;SDS011;6139;51.274;7.128;2024-01-30T02:08:02;10.13;;;6.30;;
12151;SDS011;6139;51.274;7.128;2024-01-30T02:09:03;9.48;;;7.07;;
12151;SDS011;6139;51.274;7.128;2024-01-30T02:10:05;8.50;;;6.35;;
12151;SDS011;6139;51.274;7.128;2024-01-30T02:11:10;7.90;;;6.80;;
12151;SDS011;6139;51.274;7.128;2024-01-30T02:12:13;7.25;;;6.55;;
12151;SDS011;6139;51.274;7.128;2024-01-30T02:13:14;9.00;;;6.32;;
12151;SDS011;6139;51.274;7.128;2024-01-30T02:14:16;7.75;;;6.55;;
12151;SDS011;6139;51.274;7.128;2024-01-30T02:15:17;10.40;;;6.40;;
12151;SDS011;6139;51.274;7.128;2024-01-30T02:16:18;9.48;;;6.43;;
12151;SDS011;6139;51.274;7.128;2024-01-30T02:17:21;7.55;;;6.75;;
12151;SDS011;6139;51.274;7.128;2024-01-30T02:18:23;8.95;;;6.35;;
12151;SDS011;6139;51.274;7.128;2024-01-30T02:19:45;8.13;;;6.38;;
12151;SDS011;6139;51.274;7.128;2024-01-30T02:20:46;9.25;;;6.38;;
12151;SDS011;6139;51.274;7.128;2024-01-30T02:21:49;7.18;;;5.85;;
12151;SDS011;6139;51.274;7.128;2024-01-30T02:22:51;10.15;;;6.70;;
12151;SDS011;6139;51.274;7.128;2024-01-30T02:23:55;8.10;;;6.30;;
12151;SDS011;6139;51.274;7.128;2024-01-30T02:24:58;8.00;;;6.00;;
12151;SDS011;6139;51.274;7.128;2024-01-30T02:26:00;9.23;;;6.68;;
12151;SDS011;6139;51.274;7.128;2024-01-30T02:27:02;7.90;;;6.50;;
12151;SDS011;6139;51.274;7.128;2024-01-30T02:28:03;11.50;;;6.65;;
12151;SDS011;6139;51.274;7.128;2024-01-30T02:29:05;7.75;;;6.70;;
12151;SDS011;6139;51.274;7.128;2024-01-30T02:30:07;10.40;;;6.72;;
12151;SDS011;6139;51.274;7.128;2024-01-30T02:31:09;7.50;;;6.63;;
12151;SDS011;6139;51.274;7.128;2024-01-30T02:32:10;8.20;;;6.40;;
12151;SDS011;6139;51.274;7.128;2024-01-30T02:33:12;10.32;;;7.00;;
12151;SDS011;6139;51.274;7.128;2024-01-30T02:34:13;11.70;;;6.97;;
12151;SDS011;6139;51.274;7.128;2024-01-30T02:35:15;9.63;;;6.22;;
12151;SDS011;6139;51.274;7.128;2024-01-30T02:36:16;9.75;;;6.93;;
12151;SDS011;6139;51.274;7.128;2024-01-30T02:37:20;9.05;;;6.28;;
12151;SDS011;6139;51.274;7.128;2024-01-30T02:38:21;7.85;;;6.22;;
12151;SDS011;6139;51.274;7.128;2024-01-30T02:39:23;8.13;;;6.50;;
12151;SDS011;6139;51.274;7.128;2024-01-30T02:40:24;9.70;;;6.40;;
12151;SDS011;6139;51.274;7.128;2024-01-30T02:41:26;8.35;;;6.05;;
12151;SDS011;6139;51.274;7.128;2024-01-30T02:42:27;7.93;;;6.18;;
12151;SDS011;6139;51.274;7.128;2024-01-30T02:43:29;7.75;;;6.43;;
12151;SDS011;6139;51.274;7.128;2024-01-30T02:44:30;9.95;;;6.75;;
12151;SDS011;6139;51.274;7.128;2024-01-30T02:45:32;7.35;;;6.50;;
12151;SDS011;6139;51.274;7.128;2024-01-30T02:46:33;9.93;;;6.28;;
12151;SDS011;6139;51.274;7.128;2024-01-30T02:47:35;8.18;;;6.30;;
12151;SDS011;6139;51.274;7.128;2024-01-30T02:48:36;7.25;;;6.30;;
12151;SDS011;6139;51.274;7.128;2024-01-30T02:49:39;8.80;;;6.40;;
12151;SDS011;6139;51.274;7.128;2024-01-30T02:50:40;7.63;;;6.30;;
12151;SDS011;6139;51.274;7.128;2024-01-30T02:51:42;7.82;;;6.63;;
12151;SDS011;6139;51.274;7.128;2024-01-30T02:52:44;7.15;;;6.43;;
12151;SDS011;6139;51.274;7.128;2024-01-30T02:53:45;7.32;;;6.40;;
12151;SDS011;6139;51.274;7.128;2024-01-30T02:54:47;8.88;;;6.40;;
12151;SDS011;6139;51.274;7.128;2024-01-30T02:55:48;8.07;;;6.50;;
12151;SDS011;6139;51.274;7.128;2024-01-30T02:56:50;8.90;;;7.28;;
12151;SDS011;6139;51.274;7.128;2024-01-30T02:57:51;8.20;;;6.28;;
12151;SDS011;6139;51.274;7.128;2024-01-30T02:58:53;8.00;;;6.18;;
12151;SDS011;6139;51.274;7.128;2024-01-30T02:59:54;8.77;;;6.40;;
12151;SDS011;6139;51.274;7.128;2024-01-30T03:00:56;8.48;;;6.63;;
12151;SDS011;6139;51.274;7.128;2024-01-30T03:01:57;7.13;;;5.88;;
12151;SDS011;6139;51.274;7.128;2024-01-30T03:02:59;8.10;;;6.00;;
12151;SDS011;6139;51.274;7.128;2024-01-30T03:04:00;8.30;;;6.03;;
12151;SDS011;6139;51.274;7.128;2024-01-30T03:05:02;8.10;;;6.25;;
12151;SDS011;6139;51.274;7.128;2024-01-30T03:06:04;6.15;;;5.40;;
12151;SDS011;6139;51.274;7.128;2024-01-30T03:07:07;7.93;;;6.35;;
12151;SDS011;6139;51.274;7.128;2024-01-30T03:08:09;7.82;;;6.97;;
12151;SDS011;6139;51.274;7.128;2024-01-30T03:09:11;6.82;;;6.10;;
12151;SDS011;6139;51.274;7.128;2024-01-30T03:10:12;9.60;;;6.47;;
12151;SDS011;6139;51.274;7.128;2024-01-30T03:11:14;8.27;;;6.00;;
12151;SDS011;6139;51.274;7.128;2024-01-30T03:12:15;8.85;;;6.47;;
12151;SDS011;6139;51.274;7.128;2024-01-30T03:13:17;8.88;;;6.40;;
12151;SDS011;6139;51.274;7.128;2024-01-30T03:14:18;6.70;;;5.90;;
12151;SDS011;6139;51.274;7.128;2024-01-30T03:15:20;8.32;;;5.82;;
12151;SDS011;6139;51.274;7.128;2024-01-30T03:16:21;7.20;;;6.28;;
12151;SDS011;6139;51.274;7.128;2024-01-30T03:17:22;8.13;;;5.93;;
12151;SDS011;6139;51.274;7.128;2024-01-30T03:18:25;7.90;;;6.32;;
12151;SDS011;6139;51.274;7.128;2024-01-30T03:19:26;6.18;;;5.50;;
12151;SDS011;6139;51.274;7.128;2024-01-30T03:20:28;8.23;;;6.00;;
12151;SDS011;6139;51.274;7.128;2024-01-30T03:21:29;6.93;;;6.00;;
12151;SDS011;6139;51.274;7.128;2024-01-30T03:22:31;10.00;;;6.50;;
12151;SDS011;6139;51.274;7.128;2024-01-30T03:23:33;8.25;;;6.18;;
12151;SDS011;6139;51.274;7.128;2024-01-30T03:24:35;6.82;;;5.63;;
12151;SDS011;6139;51.274;7.128;2024-01-30T03:25:36;7.93;;;5.57;;
12151;SDS011;6139;51.274;7.128;2024-01-30T03:26:38;8.40;;;6.07;;
12151;SDS011;6139;51.274;7.128;2024-01-30T03:27:39;6.75;;;5.85;;
12151;SDS011;6139;51.274;7.128;2024-01-30T03:28:41;7.00;;;5.93;;
12151;SDS011;6139;51.274;7.128;2024-01-30T03:29:42;6.95;;;6.25;;
12151;SDS011;6139;51.274;7.128;2024-01-30T03:30:44;7.00;;;6.13;;
12151;SDS011;6139;51.274;7.128;2024-01-30T03:31:45;7.00;;;5.80;;
12151;SDS011;6139;51.274;7.128;2024-01-30T03:32:47;8.25;;;6.30;;
12151;SDS011;6139;51.274;7.128;2024-01-30T03:33:48;7.10;;;6.40;;
12151;SDS011;6139;51.274;7.128;2024-01-30T03:34:50;8.82;;;5.80;;
12151;SDS011;6139;51.274;7.128;2024-01-30T03:35:51;8.93;;;6.43;;
12151;SDS011;6139;51.274;7.128;2024-01-30T03:36:53;6.82;;;5.93;;
12151;SDS011;6139;51.274;7.128;2024-01-30T03:37:54;8.50;;;5.80;;
12151;SDS011;6139;51.274;7.128;2024-01-30T03:38:57;8.25;;;5.72;;
12151;SDS011;6139;51.274;7.128;2024-01-30T03:39:58;7.93;;;6.05;;
12151;SDS011;6139;51.274;7.128;2024-01-30T03:41:00;8.98;;;5.70;;
12151;SDS011;6139;51.274;7.128;2024-01-30T03:42:01;8.05;;;5.97;;
12151;SDS011;6139;51.274;7.128;2024-01-30T03:43:03;6.85;;;5.40;;
12151;SDS011;6139;51.274;7.128;2024-01-30T03:44:06;8.15;;;6.07;;
12151;SDS011;6139;51.274;7.128;2024-01-30T03:45:08;7.07;;;5.85;;
12151;SDS011;6139;51.274;7.128;2024-01-30T03:46:11;8.82;;;5.78;;
12151;SDS011;6139;51.274;7.128;2024-01-30T03:47:13;7.75;;;5.50;;
12151;SDS011;6139;51.274;7.128;2024-01-30T03:48:14;7.38;;;5.50;;
12151;SDS011;6139;51.274;7.128;2024-01-30T03:49:16;7.05;;;5.38;;
12151;SDS011;6139;51.274;7.128;2024-01-30T03:50:17;6.00;;;5.38;;
12151;SDS011;6139;51.274;7.128;2024-01-30T03:51:19;8.20;;;5.47;;
12151;SDS011;6139;51.274;7.128;2024-01-30T03:52:20;8.20;;;5.60;;
12151;SDS011;6139;51.274;7.128;2024-01-30T03:53:22;6.00;;;5.20;;
12151;SDS011;6139;51.274;7.128;2024-01-30T03:54:24;7.57;;;5.78;;
12151;SDS011;6139;51.274;7.128;2024-01-30T03:55:26;8.93;;;5.13;;
12151;SDS011;6139;51.274;7.128;2024-01-30T03:56:27;6.88;;;5.45;;
12151;SDS011;6139;51.274;7.128;2024-01-30T03:57:29;7.47;;;5.50;;
12151;SDS011;6139;51.274;7.128;2024-01-30T03:58:30;9.23;;;5.45;;
12151;SDS011;6139;51.274;7.128;2024-01-30T03:59:32;6.93;;;5.35;;
12151;SDS011;6139;51.274;7.128;2024-01-30T04:00:33;8.85;;;5.93;;
12151;SDS011;6139;51.274;7.128;2024-01-30T04:01:35;6.88;;;5.53;;
12151;SDS011;6139;51.274;7.128;2024-01-30T04:02:36;6.43;;;5.07;;
12151;SDS011;6139;51.274;7.128;2024-01-30T04:03:38;8.60;;;5.78;;
12151;SDS011;6139;51.274;7.128;2024-01-30T04:04:39;7.35;;;5.90;;
12151;SDS011;6139;51.274;7.128;2024-01-30T04:05:40;8.73;;;5.88;;
12151;SDS011;6139;51.274;7.128;2024-01-30T04:06:42;8.23;;;5.75;;
12151;SDS011;6139;51.274;7.128;2024-01-30T04:07:43;7.20;;;5.63;;
12151;SDS011;6139;51.274;7.128;2024-01-30T04:08:45;7.35;;;5.85;;
12151;SDS011;6139;51.274;7.128;2024-01-30T04:09:47;6.78;;;5.18;;
12151;SDS011;6139;51.274;7.128;2024-01-30T04:10:49;7.57;;;5.38;;
12151;SDS011;6139;51.274;7.128;2024-01-30T04:11:50;9.30;;;5.90;;
12151;SDS011;6139;51.274;7.128;2024-01-30T04:12:52;7.35;;;5.50;;
12151;SDS011;6139;51.274;7.128;2024-01-30T04:13:54;6.35;;;5.28;;
12151;SDS011;6139;51.274;7.128;2024-01-30T04:14:56;6.28;;;5.68;;
12151;SDS011;6139;51.274;7.128;2024-01-30T04:15:58;10.10;;;5.82;;
12151;SDS011;6139;51.274;7.128;2024-01-30T04:17:00;6.90;;;5.28;;
12151;SDS011;6139;51.274;7.128;2024-01-30T04:18:02;5.95;;;5.20;;
12151;SDS011;6139;51.274;7.128;2024-01-30T04:19:03;6.43;;;5.50;;
12151;SDS011;6139;51.274;7.128;2024-01-30T04:20:05;8.23;;;5.70;;
12151;SDS011;6139;51.274;7.128;2024-01-30T04:21:07;6.68;;;5.40;;
12151;SDS011;6139;51.274;7.128;2024-01-30T04:22:08;5.65;;;5.15;;
12151;SDS011;6139;51.274;7.128;2024-01-30T04:23:10;8.40;;;5.90;;
12151;SDS011;6139;51.274;7.128;2024-01-30T04:24:11;6.40;;;5.18;;
12151;SDS011;6139;51.274;7.128;2024-01-30T04:25:14;8.00;;;5.50;;
12151;SDS011;6139;51.274;7.128;2024-01-30T04:26:15;14.90;;;5.50;;
12151;SDS011;6139;51.274;7.128;2024-01-30T04:27:17;6.63;;;5.10;;
12151;SDS011;6139;51.274;7.128;2024-01-30T04:28:18;7.53;;;5.45;;
12151;SDS011;6139;51.274;7.128;2024-01-30T04:29:20;6.38;;;5.07;;
12151;SDS011;6139;51.274;7.128;2024-01-30T04:30:22;7.22;;;5.70;;
12151;SDS011;6139;51.274;7.128;2024-01-30T04:31:24;7.63;;;5.78;;
12151;SDS011;6139;51.274;7.128;2024-01-30T04:32:25;8.88;;;5.75;;
12151;SDS011;6139;51.274;7.128;2024-01-30T04:33:26;6.70;;;5.38;;
12151;SDS011;6139;51.274;7.128;2024-01-30T04:34:28;6.47;;;5.22;;
12151;SDS011;6139;51.274;7.128;2024-01-30T04:35:29;7.63;;;5.32;;
12151;SDS011;6139;51.274;7.128;2024-01-30T04:36:31;6.00;;;5.07;;
12151;SDS011;6139;51.274;7.128;2024-01-30T04:37:33;7.70;;;5.32;;
12151;SDS011;6139;51.274;7.128;2024-01-30T04:38:34;6.78;;;5.63;;
12151;SDS011;6139;51.274;7.128;2024-01-30T04:39:36;7.97;;;5.40;;
12151;SDS011;6139;51.274;7.128;2024-01-30T04:40:38;7.70;;;5.55;;
12151;SDS011;6139;51.274;7.128;2024-01-30T04:41:40;7.90;;;4.75;;
12151;SDS011;6139;51.274;7.128;2024-01-30T04:42:41;7.22;;;5.45;;
12151;SDS011;6139;51.274;7.128;2024-01-30T04:43:43;6.72;;;5.50;;
12151;SDS011;6139;51.274;7.128;2024-01-30T04:44:44;7.18;;;5.45;;
12151;SDS011;6139;51.274;7.128;2024-01-30T04:45:46;7.63;;;5.20;;
12151;SDS011;6139;51.274;7.128;2024-01-30T04:46:47;7.82;;;5.50;;
12151;SDS011;6139;51.274;7.128;2024-01-30T04:47:49;6.15;;;5.20;;
12151;SDS011;6139;51.274;7.128;2024-01-30T04:48:50;10.05;;;5.38;;
12151;SDS011;6139;51.274;7.128;2024-01-30T04:49:52;6.93;;;5.40;;
12151;SDS011;6139;51.274;7.128;2024-01-30T04:50:53;5.60;;;5.05;;
12151;SDS011;6139;51.274;7.128;2024-01-30T04:51:56;6.95;;;5.25;;
12151;SDS011;6139;51.274;7.128;2024-01-30T04:52:57;8.52;;;5.82;;
12151;SDS011;6139;51.274;7.128;2024-01-30T04:53:59;7.00;;;5.68;;
12151;SDS011;6139;51.274;7.128;2024-01-30T04:55:00;7.05;;;5.60;;
12151;SDS011;6139;51.274;7.128;2024-01-30T04:56:04;7.65;;;5.60;;
12151;SDS011;6139;51.274;7.128;2024-01-30T04:57:05;6.93;;;5.40;;
12151;SDS011;6139;51.274;7.128;2024-01-30T04:58:09;7.28;;;5.22;;
12151;SDS011;6139;51.274;7.128;2024-01-30T04:59:11;8.95;;;5.57;;
12151;SDS011;6139;51.274;7.128;2024-01-30T05:00:13;8.15;;;6.38;;
12151;SDS011;6139;51.274;7.128;2024-01-30T05:01:15;8.25;;;5.45;;
12151;SDS011;6139;51.274;7.128;2024-01-30T05:02:16;7.43;;;5.60;;
12151;SDS011;6139;51.274;7.128;2024-01-30T05:03:18;7.03;;;5.15;;
12151;SDS011;6139;51.274;7.128;2024-01-30T05:04:19;7.85;;;5.72;;
12151;SDS011;6139;51.274;7.128;2024-01-30T05:05:22;6.13;;;5.25;;
12151;SDS011;6139;51.274;7.128;2024-01-30T05:06:26;9.30;;;5.57;;
12151;SDS011;6139;51.274;7.128;2024-01-30T05:07:28;7.60;;;5.47;;
12151;SDS011;6139;51.274;7.128;2024-01-30T05:08:29;6.00;;;5.30;;
12151;SDS011;6139;51.274;7.128;2024-01-30T05:09:30;6.38;;;5.18;;
12151;SDS011;6139;51.274;7.128;2024-01-30T05:10:32;8.77;;;5.40;;
12151;SDS011;6139;51.274;7.128;2024-01-30T05:11:37;7.38;;;5.43;;
12151;SDS011;6139;51.274;7.128;2024-01-30T05:12:39;7.82;;;5.43;;
12151;SDS011;6139;51.274;7.128;2024-01-30T05:13:41;5.50;;;5.00;;
12151;SDS011;6139;51.274;7.128;2024-01-30T05:14:42;6.30;;;5.25;;
12151;SDS011;6139;51.274;7.128;2024-01-30T05:15:43;6.07;;;5.20;;
12151;SDS011;6139;51.274;7.128;2024-01-30T05:16:45;6.82;;;5.47;;
12151;SDS011;6139;51.274;7.128;2024-01-30T05:17:47;5.93;;;4.97;;
12151;SDS011;6139;51.274;7.128;2024-01-30T05:18:48;6.22;;;5.38;;
12151;SDS011;6139;51.274;7.128;2024-01-30T05:19:50;7.13;;;5.45;;
12151;SDS011;6139;51.274;7.128;2024-01-30T05:20:51;7.32;;;5.05;;
12151;SDS011;6139;51.274;7.128;2024-01-30T05:21:53;7.10;;;5.40;;
12151;SDS011;6139;51.274;7.128;2024-01-30T05:22:54;7.30;;;5.40;;
12151;SDS011;6139;51.274;7.128;2024-01-30T05:23:56;6.43;;;5.10;;
12151;SDS011;6139;51.274;7.128;2024-01-30T05:24:57;6.75;;;5.07;;
12151;SDS011;6139;51.274;7.128;2024-01-30T05:25:59;6.05;;;5.28;;
12151;SDS011;6139;51.274;7.128;2024-01-30T05:27:02;9.20;;;5.40;;
12151;SDS011;6139;51.274;7.128;2024-01-30T05:28:05;6.13;;;4.88;;
12151;SDS011;6139;51.274;7.128;2024-01-30T05:29:06;8.70;;;5.32;;
12151;SDS011;6139;51.274;7.128;2024-01-30T05:30:08;7.70;;;5.28;;
12151;SDS011;6139;51.274;7.128;2024-01-30T05:31:10;6.13;;;5.53;;
12151;SDS011;6139;51.274;7.128;2024-01-30T05:32:12;7.55;;;5.32;;
12151;SDS011;6139;51.274;7.128;2024-01-30T05:33:13;5.47;;;4.78;;
12151;SDS011;6139;51.274;7.128;2024-01-30T05:34:15;7.35;;;5.47;;
12151;SDS011;6139;51.274;7.128;2024-01-30T05:35:16;10.65;;;5.35;;
12151;SDS011;6139;51.274;7.128;2024-01-30T05:36:18;7.50;;;5.53;;
12151;SDS011;6139;51.274;7.128;2024-01-30T05:37:19;10.18;;;5.75;;
12151;SDS011;6139;51.274;7.128;2024-01-30T05:38:21;10.05;;;5.60;;
12151;SDS011;6139;51.274;7.128;2024-01-30T05:39:22;7.13;;;5.57;;
12151;SDS011;6139;51.274;7.128;2024-01-30T05:40:24;7.68;;;5.85;;
12151;SDS011;6139;51.274;7.128;2024-01-30T05:41:25;7.28;;;5.40;;
12151;SDS011;6139;51.274;7.128;2024-01-30T05:42:28;7.38;;;5.43;;
12151;SDS011;6139;51.274;7.128;2024-01-30T05:43:29;5.43;;;4.80;;
12151;SDS011;6139;51.274;7.128;2024-01-30T05:44:31;6.35;;;5.35;;
12151;SDS011;6139;51.274;7.128;2024-01-30T05:45:32;7.30;;;5.60;;
12151;SDS011;6139;51.274;7.128;2024-01-30T05:46:35;5.20;;;4.45;;
12151;SDS011;6139;51.274;7.128;2024-01-30T05:47:36;6.25;;;4.93;;
12151;SDS011;6139;51.274;7.128;2024-01-30T05:48:38;5.85;;;5.25;;
12151;SDS011;6139;51.274;7.128;2024-01-30T05:49:39;6.43;;;5.38;;
12151;SDS011;6139;51.274;7.128;2024-01-30T05:50:40;7.60;;;5.28;;
12151;SDS011;6139;51.274;7.128;2024-01-30T05:51:42;8.57;;;4.88;;
12151;SDS011;6139;51.274;7.128;2024-01-30T05:52:43;5.70;;;4.97;;
12151;SDS011;6139;51.274;7.128;2024-01-30T05:53:45;7.22;;;5.20;;
12151;SDS011;6139;51.274;7.128;2024-01-30T05:54:46;7.28;;;5.05;;
12151;SDS011;6139;51.274;7.128;2024-01-30T05:55:48;7.07;;;4.97;;
12151;SDS011;6139;51.274;7.128;2024-01-30T05:56:49;5.53;;;4.70;;
12151;SDS011;6139;51.274;7.128;2024-01-30T05:57:51;6.35;;;4.78;;
12151;SDS011;6139;51.274;7.128;2024-01-30T05:58:53;8.10;;;5.38;;
12151;SDS011;6139;51.274;7.128;2024-01-30T05:59:54;6.32;;;5.22;;
12151;SDS011;6139;51.274;7.128;2024-01-30T06:00:56;6.18;;;5.10;;
12151;SDS011;6139;51.274;7.128;2024-01-30T06:01:58;6.60;;;5.47;;
12151;SDS011;6139;51.274;7.128;2024-01-30T06:02:59;6.68;;;5.38;;
12151;SDS011;6139;51.274;7.128;2024-01-30T06:04:01;5.03;;;4.53;;
12151;SDS011;6139;51.274;7.128;2024-01-30T06:05:03;8.07;;;5.30;;
12151;SDS011;6139;51.274;7.128;2024-01-30T06:06:04;6.20;;;5.05;;
12151;SDS011;6139;51.274;7.128;2024-01-30T06:07:06;8.10;;;5.13;;
12151;SDS011;6139;51.274;7.128;2024-01-30T06:08:08;5.93;;;5.05;;
12151;SDS011;6139;51.274;7.128;2024-01-30T06:09:10;6.43;;;5.60;;
12151;SDS011;6139;51.274;7.128;2024-01-30T06:10:13;7.15;;;5.90;;
12151;SDS011;6139;51.274;7.128;2024-01-30T06:11:15;7.68;;;5.45;;
12151;SDS011;6139;51.274;7.128;2024-01-30T06:12:16;6.45;;;5.00;;
12151;SDS011;6139;51.274;7.128;2024-01-30T06:13:19;6.90;;;5.28;;
12151;SDS011;6139;51.274;7.128;2024-01-30T06:14:20;5.53;;;5.03;;
12151;SDS011;6139;51.274;7.128;2024-01-30T06:15:22;6.68;;;5.18;;
12151;SDS011;6139;51.274;7.128;2024-01-30T06:16:23;6.22;;;5.05;;
12151;SDS011;6139;51.274;7.128;2024-01-30T06:17:29;8.95;;;5.65;;
12151;SDS011;6139;51.274;7.128;2024-01-30T06:18:30;6.97;;;5.05;;